sensor_id;sensor_type;location;lat;lon;timestamp;pressure;altitude;pressure_sealevel;temperature;humidity
55456;BME280;63021;52.836;6.376;2023-04-30T00:01:32;102497.56;;;8.71;63.98
55456;BME280;63021;52.836;6.376;2023-04-30T00:03:57;102520.88;;;8.66;64.15
55456;BME280;63021;52.836;6.376;2023-04-30T00:06:23;102510.44;;;8.63;64.26
55456;BME280;63021;52.836;6.376;2023-04-30T00:08:48;102506.53;;;8.54;64.37
55456;BME280;63021;52.836;6.376;2023-04-30T00:11:13;102508.47;;;8.52;64.19
55456;BME280;63021;52.836;6.376;2023-04-30T00:13:39;102500.75;;;8.47;64.28
55456;BME280;63021;52.836;6.376;2023-04-30T00:16:06;102498.44;;;8.41;64.83
55456;BME280;63021;52.836;6.376;2023-04-30T00:18:32;102500.34;;;8.39;64.25
55456;BME280;63021;52.836;6.376;2023-04-30T00:20:57;102495.28;;;8.35;64.68
55456;BME280;63021;52.836;6.376;2023-04-30T00:23:23;102492.06;;;8.29;65.39
55456;BME280;63021;52.836;6.376;2023-04-30T00:25:48;102492.25;;;8.26;64.68
55456;BME280;63021;52.836;6.376;2023-04-30T00:28:13;102501.06;;;8.27;65.11
55456;BME280;63021;52.836;6.376;2023-04-30T00:30:39;102508.38;;;8.23;65.11
55456;BME280;63021;52.836;6.376;2023-04-30T00:33:04;102505.88;;;8.20;65.37
55456;BME280;63021;52.836;6.376;2023-04-30T00:35:30;102504.50;;;8.13;65.36
55456;BME280;63021;52.836;6.376;2023-04-30T00:37:55;102497.97;;;8.04;64.82
55456;BME280;63021;52.836;6.376;2023-04-30T00:40:20;102499.16;;;7.98;65.55
55456;BME280;63021;52.836;6.376;2023-04-30T00:42:46;102514.84;;;8.03;65.51
55456;BME280;63021;52.836;6.376;2023-04-30T00:45:12;102515.94;;;7.99;65.83
55456;BME280;63021;52.836;6.376;2023-04-30T00:47:38;102520.66;;;7.94;65.47
55456;BME280;63021;52.836;6.376;2023-04-30T00:50:04;102510.50;;;7.86;65.41
55456;BME280;63021;52.836;6.376;2023-04-30T00:52:30;102506.59;;;7.77;65.41
55456;BME280;63021;52.836;6.376;2023-04-30T00:54:55;102493.66;;;7.71;65.74
55456;BME280;63021;52.836;6.376;2023-04-30T00:57:21;102513.84;;;7.74;65.25
55456;BME280;63021;52.836;6.376;2023-04-30T00:59:47;102493.59;;;7.57;65.77
55456;BME280;63021;52.836;6.376;2023-04-30T01:02:13;102519.69;;;7.65;65.96
55456;BME280;63021;52.836;6.376;2023-04-30T01:04:39;102527.81;;;7.61;65.98
55456;BME280;63021;52.836;6.376;2023-04-30T01:07:05;102531.56;;;7.57;66.24
55456;BME280;63021;52.836;6.376;2023-04-30T01:09:31;102527.19;;;7.56;66.32
55456;BME280;63021;52.836;6.376;2023-04-30T01:12:12;102523.84;;;7.53;65.86
55456;BME280;63021;52.836;6.376;2023-04-30T01:17:35;102526.84;;;7.46;66.38
55456;BME280;63021;52.836;6.376;2023-04-30T01:20:03;102528.91;;;7.41;66.23
55456;BME280;63021;52.836;6.376;2023-04-30T01:28:14;102516.25;;;7.31;66.63
55456;BME280;63021;52.836;6.376;2023-04-30T01:30:47;102526.31;;;7.24;66.67
55456;BME280;63021;52.836;6.376;2023-04-30T01:33:14;102511.56;;;7.20;66.80
55456;BME280;63021;52.836;6.376;2023-04-30T01:38:49;102515.63;;;7.09;66.82
55456;BME280;63021;52.836;6.376;2023-04-30T01:44:01;102511.84;;;6.98;66.41
55456;BME280;63021;52.836;6.376;2023-04-30T01:46:30;102512.78;;;6.97;66.39
55456;BME280;63021;52.836;6.376;2023-04-30T01:51:43;102544.88;;;6.90;66.84
55456;BME280;63021;52.836;6.376;2023-04-30T01:54:37;102526.50;;;6.87;66.93
55456;BME280;63021;52.836;6.376;2023-04-30T01:57:07;102532.91;;;6.83;66.46
55456;BME280;63021;52.836;6.376;2023-04-30T01:59:38;102527.00;;;6.78;66.66
55456;BME280;63021;52.836;6.376;2023-04-30T02:02:05;102533.31;;;6.75;67.14
55456;BME280;63021;52.836;6.376;2023-04-30T02:04:30;102526.47;;;6.71;67.00
55456;BME280;63021;52.836;6.376;2023-04-30T02:06:56;102542.50;;;6.68;66.97
55456;BME280;63021;52.836;6.376;2023-04-30T02:09:23;102540.97;;;6.64;67.49
55456;BME280;63021;52.836;6.376;2023-04-30T02:11:48;102522.81;;;6.56;67.01
55456;BME280;63021;52.836;6.376;2023-04-30T02:14:14;102534.13;;;6.60;67.23
55456;BME280;63021;52.836;6.376;2023-04-30T02:16:39;102542.22;;;6.57;67.41
55456;BME280;63021;52.836;6.376;2023-04-30T02:19:04;102525.88;;;6.49;67.51
55456;BME280;63021;52.836;6.376;2023-04-30T02:21:30;102532.88;;;6.50;68.03
55456;BME280;63021;52.836;6.376;2023-04-30T02:23:59;102532.25;;;6.45;67.43
55456;BME280;63021;52.836;6.376;2023-04-30T02:26:24;102535.06;;;6.41;67.54
55456;BME280;63021;52.836;6.376;2023-04-30T02:28:50;102529.44;;;6.30;67.56
55456;BME280;63021;52.836;6.376;2023-04-30T02:31:16;102528.38;;;6.34;67.59
55456;BME280;63021;52.836;6.376;2023-04-30T02:33:41;102549.69;;;6.31;67.97
55456;BME280;63021;52.836;6.376;2023-04-30T02:36:07;102519.44;;;6.19;68.13
55456;BME280;63021;52.836;6.376;2023-04-30T02:38:32;102544.63;;;6.27;68.11
55456;BME280;63021;52.836;6.376;2023-04-30T02:40:58;102511.56;;;6.18;67.98
55456;BME280;63021;52.836;6.376;2023-04-30T02:43:23;102520.44;;;6.17;68.46
55456;BME280;63021;52.836;6.376;2023-04-30T02:45:49;102521.28;;;6.17;68.29
55456;BME280;63021;52.836;6.376;2023-04-30T02:48:15;102524.56;;;6.22;68.66
55456;BME280;63021;52.836;6.376;2023-04-30T02:50:40;102517.00;;;6.15;68.45
55456;BME280;63021;52.836;6.376;2023-04-30T02:53:06;102525.72;;;6.17;67.89
55456;BME280;63021;52.836;6.376;2023-04-30T02:55:31;102514.34;;;6.15;68.15
55456;BME280;63021;52.836;6.376;2023-04-30T02:57:57;102507.53;;;6.11;68.17
55456;BME280;63021;52.836;6.376;2023-04-30T03:00:22;102513.81;;;6.08;68.27
55456;BME280;63021;52.836;6.376;2023-04-30T03:02:47;102509.59;;;6.04;68.01
55456;BME280;63021;52.836;6.376;2023-04-30T03:05:13;102505.25;;;6.03;68.72
55456;BME280;63021;52.836;6.376;2023-04-30T03:07:40;102499.28;;;5.99;68.83
55456;BME280;63021;52.836;6.376;2023-04-30T03:10:06;102509.97;;;5.96;68.41
55456;BME280;63021;52.836;6.376;2023-04-30T03:12:31;102510.25;;;5.90;68.21
55456;BME280;63021;52.836;6.376;2023-04-30T03:14:57;102520.34;;;5.82;68.29
55456;BME280;63021;52.836;6.376;2023-04-30T03:17:22;102519.56;;;5.80;68.58
55456;BME280;63021;52.836;6.376;2023-04-30T03:19:49;102519.56;;;5.80;68.58
55456;BME280;63021;52.836;6.376;2023-04-30T03:22:14;102510.69;;;5.63;68.49
55456;BME280;63021;52.836;6.376;2023-04-30T03:24:40;102512.25;;;5.48;68.64
55456;BME280;63021;52.836;6.376;2023-04-30T03:27:05;102510.28;;;5.34;68.26
55456;BME280;63021;52.836;6.376;2023-04-30T03:29:32;102520.25;;;5.28;67.67
55456;BME280;63021;52.836;6.376;2023-04-30T03:31:57;102518.97;;;5.17;68.14
55456;BME280;63021;52.836;6.376;2023-04-30T03:34:23;102506.63;;;4.99;68.22
55456;BME280;63021;52.836;6.376;2023-04-30T03:36:48;102523.38;;;4.98;68.67
55456;BME280;63021;52.836;6.376;2023-04-30T03:39:14;102525.41;;;4.91;68.46
55456;BME280;63021;52.836;6.376;2023-04-30T03:41:40;102529.16;;;4.87;68.61
55456;BME280;63021;52.836;6.376;2023-04-30T03:44:05;102529.16;;;4.87;68.69
55456;BME280;63021;52.836;6.376;2023-04-30T03:46:31;102526.53;;;4.85;69.22
55456;BME280;63021;52.836;6.376;2023-04-30T03:48:56;102536.19;;;4.86;68.90
55456;BME280;63021;52.836;6.376;2023-04-30T03:51:21;102532.78;;;4.84;69.07
55456;BME280;63021;52.836;6.376;2023-04-30T03:53:47;102527.69;;;4.80;69.03
55456;BME280;63021;52.836;6.376;2023-04-30T03:56:13;102560.06;;;4.83;69.41
55456;BME280;63021;52.836;6.376;2023-04-30T03:58:38;102539.03;;;4.82;69.69
55456;BME280;63021;52.836;6.376;2023-04-30T04:01:04;102529.41;;;4.81;69.25
55456;BME280;63021;52.836;6.376;2023-04-30T04:03:29;102526.75;;;4.81;69.46
55456;BME280;63021;52.836;6.376;2023-04-30T04:05:55;102530.06;;;4.86;69.91
55456;BME280;63021;52.836;6.376;2023-04-30T04:08:20;102533.34;;;4.91;69.59
55456;BME280;63021;52.836;6.376;2023-04-30T04:10:46;102543.88;;;4.91;69.47
55456;BME280;63021;52.836;6.376;2023-04-30T04:13:11;102537.69;;;4.92;69.68
55456;BME280;63021;52.836;6.376;2023-04-30T04:15:40;102533.34;;;4.91;70.03
55456;BME280;63021;52.836;6.376;2023-04-30T04:18:08;102542.97;;;4.92;70.24
55456;BME280;63021;52.836;6.376;2023-04-30T04:20:34;102540.53;;;4.88;69.74
55456;BME280;63021;52.836;6.376;2023-04-30T04:23:00;102513.56;;;4.81;69.89
55456;BME280;63021;52.836;6.376;2023-04-30T04:25:25;102530.06;;;4.86;69.88
55456;BME280;63021;52.836;6.376;2023-04-30T04:27:51;102510.91;;;4.81;69.79
55456;BME280;63021;52.836;6.376;2023-04-30T04:30:17;102526.16;;;4.95;70.43
55456;BME280;63021;52.836;6.376;2023-04-30T04:32:43;102542.66;;;5.00;70.49
55456;BME280;63021;52.836;6.376;2023-04-30T04:35:15;102560.91;;;5.05;69.90
55456;BME280;63021;52.836;6.376;2023-04-30T04:37:41;102561.75;;;5.05;70.26
55456;BME280;63021;52.836;6.376;2023-04-30T04:40:07;102562.56;;;5.07;70.10
55456;BME280;63021;52.836;6.376;2023-04-30T04:42:33;102564.31;;;5.07;70.62
55456;BME280;63021;52.836;6.376;2023-04-30T04:44:58;102548.63;;;5.03;70.15
55456;BME280;63021;52.836;6.376;2023-04-30T04:47:24;102566.81;;;5.10;70.70
55456;BME280;63021;52.836;6.376;2023-04-30T04:49:49;102593.16;;;5.11;70.56
55456;BME280;63021;52.836;6.376;2023-04-30T04:52:15;102592.16;;;5.14;70.09
55456;BME280;63021;52.836;6.376;2023-04-30T04:54:40;102584.31;;;5.12;70.29
55456;BME280;63021;52.836;6.376;2023-04-30T04:57:06;102594.59;;;5.18;70.39
55456;BME280;63021;52.836;6.376;2023-04-30T04:59:31;102575.63;;;5.10;70.45
55456;BME280;63021;52.836;6.376;2023-04-30T05:01:57;102583.78;;;5.25;70.51
55456;BME280;63021;52.836;6.376;2023-04-30T05:04:22;102607.47;;;5.26;70.55
55456;BME280;63021;52.836;6.376;2023-04-30T05:06:47;102597.59;;;5.30;70.55
55456;BME280;63021;52.836;6.376;2023-04-30T05:09:13;102609.91;;;5.31;70.44
55456;BME280;63021;52.836;6.376;2023-04-30T05:11:38;102581.84;;;5.28;71.13
55456;BME280;63021;52.836;6.376;2023-04-30T05:14:06;102576.22;;;5.36;71.10
55456;BME280;63021;52.836;6.376;2023-04-30T05:16:31;102571.56;;;5.41;70.96
55456;BME280;63021;52.836;6.376;2023-04-30T05:18:56;102572.94;;;5.50;70.96
55456;BME280;63021;52.836;6.376;2023-04-30T05:21:22;102562.50;;;5.47;70.98
55456;BME280;63021;52.836;6.376;2023-04-30T05:23:47;102562.09;;;5.56;71.01
55456;BME280;63021;52.836;6.376;2023-04-30T05:26:13;102587.50;;;5.78;71.10
55456;BME280;63021;52.836;6.376;2023-04-30T05:28:38;102578.78;;;5.76;70.67
55456;BME280;63021;52.836;6.376;2023-04-30T05:31:04;102593.91;;;5.91;70.19
55456;BME280;63021;52.836;6.376;2023-04-30T05:33:29;102583.06;;;5.97;70.93
55456;BME280;63021;52.836;6.376;2023-04-30T05:35:54;102583.78;;;6.01;70.89
55456;BME280;63021;52.836;6.376;2023-04-30T05:38:20;102594.78;;;6.11;70.86
55456;BME280;63021;52.836;6.376;2023-04-30T05:40:45;102606.78;;;6.18;70.74
55456;BME280;63021;52.836;6.376;2023-04-30T05:43:11;102597.91;;;6.36;70.82
55456;BME280;63021;52.836;6.376;2023-04-30T05:45:37;102598.16;;;6.49;70.07
55456;BME280;63021;52.836;6.376;2023-04-30T05:48:02;102604.16;;;6.70;70.07
55456;BME280;63021;52.836;6.376;2023-04-30T05:50:28;102623.53;;;6.88;70.63
55456;BME280;63021;52.836;6.376;2023-04-30T05:52:53;102612.84;;;7.07;70.68
55456;BME280;63021;52.836;6.376;2023-04-30T05:55:19;102597.75;;;7.25;70.65
55456;BME280;63021;52.836;6.376;2023-04-30T05:57:44;102605.50;;;7.46;70.08
55456;BME280;63021;52.836;6.376;2023-04-30T06:00:10;102591.41;;;7.61;70.38
55456;BME280;63021;52.836;6.376;2023-04-30T06:02:38;102589.78;;;7.75;69.54
55456;BME280;63021;52.836;6.376;2023-04-30T06:05:04;102598.75;;;7.88;69.87
55456;BME280;63021;52.836;6.376;2023-04-30T06:07:29;102585.75;;;8.00;69.69
55456;BME280;63021;52.836;6.376;2023-04-30T06:09:55;102597.53;;;8.10;69.72
55456;BME280;63021;52.836;6.376;2023-04-30T06:12:20;102603.97;;;8.22;69.77
55456;BME280;63021;52.836;6.376;2023-04-30T06:14:46;102592.91;;;8.29;69.18
55456;BME280;63021;52.836;6.376;2023-04-30T06:17:11;102597.56;;;8.40;69.27
55456;BME280;63021;52.836;6.376;2023-04-30T06:19:40;102597.63;;;8.55;69.12
55456;BME280;63021;52.836;6.376;2023-04-30T06:22:08;102616.44;;;8.66;69.42
55456;BME280;63021;52.836;6.376;2023-04-30T06:24:34;102589.38;;;8.75;68.96
55456;BME280;63021;52.836;6.376;2023-04-30T06:26:59;102599.06;;;8.91;68.85
55456;BME280;63021;52.836;6.376;2023-04-30T06:29:25;102595.84;;;9.00;68.89
55456;BME280;63021;52.836;6.376;2023-04-30T06:31:51;102612.94;;;9.10;68.37
55456;BME280;63021;52.836;6.376;2023-04-30T06:34:16;102602.59;;;9.20;68.06
55456;BME280;63021;52.836;6.376;2023-04-30T06:36:41;102591.47;;;9.28;67.69
55456;BME280;63021;52.836;6.376;2023-04-30T06:39:07;102592.63;;;9.38;67.58
55456;BME280;63021;52.836;6.376;2023-04-30T06:41:32;102594.13;;;9.42;67.11
55456;BME280;63021;52.836;6.376;2023-04-30T06:43:58;102585.47;;;9.53;67.35
55456;BME280;63021;52.836;6.376;2023-04-30T06:46:23;102565.34;;;9.49;67.04
55456;BME280;63021;52.836;6.376;2023-04-30T06:48:49;102588.13;;;9.67;67.05
55456;BME280;63021;52.836;6.376;2023-04-30T06:51:14;102579.19;;;9.68;66.40
55456;BME280;63021;52.836;6.376;2023-04-30T06:53:40;102594.53;;;9.78;65.87
55456;BME280;63021;52.836;6.376;2023-04-30T06:56:05;102589.59;;;9.86;66.35
55456;BME280;63021;52.836;6.376;2023-04-30T06:58:31;102589.09;;;9.94;65.58
55456;BME280;63021;52.836;6.376;2023-04-30T07:00:56;102561.94;;;9.88;65.21
55456;BME280;63021;52.836;6.376;2023-04-30T07:03:22;102571.88;;;9.99;65.65
55456;BME280;63021;52.836;6.376;2023-04-30T07:05:51;102584.47;;;10.10;65.33
55456;BME280;63021;52.836;6.376;2023-04-30T07:08:18;102598.38;;;10.28;64.88
55456;BME280;63021;52.836;6.376;2023-04-30T07:10:43;102603.59;;;10.30;65.00
55456;BME280;63021;52.836;6.376;2023-04-30T07:13:09;102584.59;;;10.36;64.74
55456;BME280;63021;52.836;6.376;2023-04-30T07:15:34;102584.19;;;10.42;64.51
55456;BME280;63021;52.836;6.376;2023-04-30T07:18:00;102576.19;;;10.42;64.28
55456;BME280;63021;52.836;6.376;2023-04-30T07:20:25;102592.72;;;10.60;64.51
55456;BME280;63021;52.836;6.376;2023-04-30T07:22:51;102572.91;;;10.64;63.92
55456;BME280;63021;52.836;6.376;2023-04-30T07:25:16;102584.22;;;10.81;64.29
55456;BME280;63021;52.836;6.376;2023-04-30T07:27:42;102584.75;;;10.86;64.02
55456;BME280;63021;52.836;6.376;2023-04-30T07:30:08;102552.25;;;10.81;64.02
55456;BME280;63021;52.836;6.376;2023-04-30T07:32:35;102576.53;;;11.02;63.90
55456;BME280;63021;52.836;6.376;2023-04-30T07:35:02;102563.31;;;11.00;63.44
55456;BME280;63021;52.836;6.376;2023-04-30T07:37:28;102581.56;;;11.19;62.84
55456;BME280;63021;52.836;6.376;2023-04-30T07:39:53;102582.84;;;11.26;62.91
55456;BME280;63021;52.836;6.376;2023-04-30T07:42:19;102551.59;;;11.16;62.63
55456;BME280;63021;52.836;6.376;2023-04-30T07:44:45;102555.00;;;11.31;62.56
55456;BME280;63021;52.836;6.376;2023-04-30T07:47:13;102563.06;;;11.42;62.38
55456;BME280;63021;52.836;6.376;2023-04-30T07:49:39;102574.78;;;11.52;62.35
55456;BME280;63021;52.836;6.376;2023-04-30T07:52:04;102571.22;;;11.65;62.11
55456;BME280;63021;52.836;6.376;2023-04-30T07:54:30;102575.78;;;11.75;61.47
55456;BME280;63021;52.836;6.376;2023-04-30T07:56:55;102580.78;;;11.80;61.31
55456;BME280;63021;52.836;6.376;2023-04-30T07:59:21;102581.38;;;11.84;61.57
55456;BME280;63021;52.836;6.376;2023-04-30T08:01:49;102560.03;;;11.84;61.14
55456;BME280;63021;52.836;6.376;2023-04-30T08:04:15;102586.03;;;12.06;61.41
55456;BME280;63021;52.836;6.376;2023-04-30T08:06:40;102577.44;;;12.13;60.57
55456;BME280;63021;52.836;6.376;2023-04-30T08:09:06;102582.53;;;12.05;60.38
55456;BME280;63021;52.836;6.376;2023-04-30T08:11:31;102604.09;;;12.26;60.43
55456;BME280;63021;52.836;6.376;2023-04-30T08:13:57;102581.00;;;12.25;60.39
55456;BME280;63021;52.836;6.376;2023-04-30T08:16:22;102587.63;;;12.33;59.94
55456;BME280;63021;52.836;6.376;2023-04-30T08:18:48;102599.19;;;12.44;59.47
55456;BME280;63021;52.836;6.376;2023-04-30T08:21:14;102597.84;;;12.39;58.68
55456;BME280;63021;52.836;6.376;2023-04-30T08:23:40;102566.47;;;12.29;59.02
55456;BME280;63021;52.836;6.376;2023-04-30T08:26:09;102593.38;;;12.51;58.73
55456;BME280;63021;52.836;6.376;2023-04-30T08:28:34;102620.38;;;12.59;58.46
55456;BME280;63021;52.836;6.376;2023-04-30T08:31:11;102592.06;;;12.56;58.23
55456;BME280;63021;52.836;6.376;2023-04-30T08:33:37;102573.06;;;12.48;58.39
55456;BME280;63021;52.836;6.376;2023-04-30T08:36:06;102602.66;;;12.69;58.27
55456;BME280;63021;52.836;6.376;2023-04-30T08:38:32;102580.72;;;12.53;57.56
55456;BME280;63021;52.836;6.376;2023-04-30T08:41:08;102585.25;;;12.52;58.25
55456;BME280;63021;52.836;6.376;2023-04-30T08:43:35;102577.47;;;12.49;57.58
55456;BME280;63021;52.836;6.376;2023-04-30T08:46:02;102599.94;;;12.58;57.46
55456;BME280;63021;52.836;6.376;2023-04-30T08:48:28;102568.44;;;12.39;58.11
55456;BME280;63021;52.836;6.376;2023-04-30T08:50:55;102576.81;;;12.45;58.10
55456;BME280;63021;52.836;6.376;2023-04-30T08:53:20;102616.09;;;12.56;57.97
55456;BME280;63021;52.836;6.376;2023-04-30T08:55:46;102607.38;;;12.65;57.86
55456;BME280;63021;52.836;6.376;2023-04-30T08:58:12;102586.72;;;12.56;57.67
55456;BME280;63021;52.836;6.376;2023-04-30T09:00:38;102577.22;;;12.52;57.70
55456;BME280;63021;52.836;6.376;2023-04-30T09:03:05;102608.00;;;12.69;57.63
55456;BME280;63021;52.836;6.376;2023-04-30T09:05:30;102607.03;;;12.70;57.16
55456;BME280;63021;52.836;6.376;2023-04-30T09:07:55;102576.50;;;12.50;57.38
55456;BME280;63021;52.836;6.376;2023-04-30T09:10:22;102603.25;;;12.61;57.60
55456;BME280;63021;52.836;6.376;2023-04-30T09:15:24;102587.56;;;12.57;56.52
55456;BME280;63021;52.836;6.376;2023-04-30T09:17:50;102600.69;;;12.71;57.29
55456;BME280;63021;52.836;6.376;2023-04-30T09:20:15;102596.00;;;12.75;57.23
55456;BME280;63021;52.836;6.376;2023-04-30T09:22:42;102604.41;;;12.81;57.35
55456;BME280;63021;52.836;6.376;2023-04-30T09:25:08;102597.22;;;12.82;57.12
55456;BME280;63021;52.836;6.376;2023-04-30T09:27:34;102605.59;;;12.77;57.69
55456;BME280;63021;52.836;6.376;2023-04-30T09:30:00;102589.69;;;12.87;57.64
55456;BME280;63021;52.836;6.376;2023-04-30T09:32:25;102592.63;;;12.95;57.12
55456;BME280;63021;52.836;6.376;2023-04-30T09:34:51;102593.25;;;12.99;57.03
55456;BME280;63021;52.836;6.376;2023-04-30T09:37:17;102584.72;;;13.05;56.99
55456;BME280;63021;52.836;6.376;2023-04-30T09:39:53;102586.06;;;13.11;57.22
55456;BME280;63021;52.836;6.376;2023-04-30T09:42:18;102599.31;;;13.12;57.04
55456;BME280;63021;52.836;6.376;2023-04-30T09:44:45;102570.28;;;13.08;57.29
55456;BME280;63021;52.836;6.376;2023-04-30T09:49:40;102586.78;;;13.24;56.67
55456;BME280;63021;52.836;6.376;2023-04-30T09:52:07;102576.59;;;13.18;56.84
55456;BME280;63021;52.836;6.376;2023-04-30T09:54:33;102586.31;;;13.30;56.53
55456;BME280;63021;52.836;6.376;2023-04-30T09:57:03;102562.97;;;13.32;56.85
55456;BME280;63021;52.836;6.376;2023-04-30T09:59:32;102570.19;;;13.43;55.87
55456;BME280;63021;52.836;6.376;2023-04-30T10:02:01;102564.56;;;13.46;56.18
55456;BME280;63021;52.836;6.376;2023-04-30T10:04:34;102540.59;;;13.33;56.09
55456;BME280;63021;52.836;6.376;2023-04-30T10:07:14;102536.63;;;13.39;55.40
55456;BME280;63021;52.836;6.376;2023-04-30T10:09:52;102525.41;;;13.45;55.63
55456;BME280;63021;52.836;6.376;2023-04-30T10:12:25;102545.09;;;13.56;55.77
55456;BME280;63021;52.836;6.376;2023-04-30T10:14:57;102555.63;;;13.80;56.08
55456;BME280;63021;52.836;6.376;2023-04-30T10:17:29;102547.94;;;13.86;55.02
55456;BME280;63021;52.836;6.376;2023-04-30T10:19:58;102526.28;;;13.78;54.83
55456;BME280;63021;52.836;6.376;2023-04-30T10:22:28;102524.94;;;13.84;54.71
55456;BME280;63021;52.836;6.376;2023-04-30T10:24:54;102546.78;;;14.00;54.98
55456;BME280;63021;52.836;6.376;2023-04-30T10:27:20;102543.34;;;14.10;54.77
55456;BME280;63021;52.836;6.376;2023-04-30T10:29:50;102510.03;;;14.02;54.24
55456;BME280;63021;52.836;6.376;2023-04-30T10:32:16;102507.66;;;14.09;54.02
55456;BME280;63021;52.836;6.376;2023-04-30T10:35:08;102535.78;;;14.36;54.08
55456;BME280;63021;52.836;6.376;2023-04-30T10:37:56;102529.88;;;14.42;54.31
55456;BME280;63021;52.836;6.376;2023-04-30T10:40:27;102511.09;;;14.32;54.03
55456;BME280;63021;52.836;6.376;2023-04-30T10:42:52;102513.16;;;14.50;53.39
55456;BME280;63021;52.836;6.376;2023-04-30T10:45:37;102522.59;;;14.65;53.35
55456;BME280;63021;52.836;6.376;2023-04-30T10:48:07;102496.41;;;14.58;53.50
55456;BME280;63021;52.836;6.376;2023-04-30T10:50:44;102509.56;;;14.82;54.14
55456;BME280;63021;52.836;6.376;2023-04-30T10:53:17;102516.97;;;14.99;54.25
55456;BME280;63021;52.836;6.376;2023-04-30T10:56:01;102488.72;;;14.95;53.06
55456;BME280;63021;52.836;6.376;2023-04-30T10:58:39;102483.34;;;14.95;52.67
55456;BME280;63021;52.836;6.376;2023-04-30T11:01:11;102505.72;;;15.15;51.97
55456;BME280;63021;52.836;6.376;2023-04-30T11:03:43;102475.75;;;15.00;51.37
55456;BME280;63021;52.836;6.376;2023-04-30T11:07:08;102488.94;;;15.13;51.77
55456;BME280;63021;52.836;6.376;2023-04-30T11:12:08;102504.78;;;15.26;51.21
55456;BME280;63021;52.836;6.376;2023-04-30T11:14:39;102489.78;;;15.23;51.14
55456;BME280;63021;52.836;6.376;2023-04-30T11:17:05;102487.03;;;15.45;51.51
55456;BME280;63021;52.836;6.376;2023-04-30T11:19:31;102490.28;;;15.58;51.72
55456;BME280;63021;52.836;6.376;2023-04-30T11:27:27;102472.63;;;15.75;51.76
55456;BME280;63021;52.836;6.376;2023-04-30T11:29:57;102474.19;;;15.87;51.91
55456;BME280;63021;52.836;6.376;2023-04-30T11:32:38;102470.09;;;16.03;51.31
55456;BME280;63021;52.836;6.376;2023-04-30T11:35:10;102472.03;;;16.20;50.97
55456;BME280;63021;52.836;6.376;2023-04-30T11:37:41;102453.38;;;16.19;51.02
55456;BME280;63021;52.836;6.376;2023-04-30T11:40:12;102469.31;;;16.40;50.88
55456;BME280;63021;52.836;6.376;2023-04-30T11:42:39;102464.91;;;16.49;50.36
55456;BME280;63021;52.836;6.376;2023-04-30T11:45:16;102456.81;;;16.58;50.88
55456;BME280;63021;52.836;6.376;2023-04-30T11:47:58;102441.53;;;16.59;50.01
55456;BME280;63021;52.836;6.376;2023-04-30T11:50:41;102446.81;;;16.78;49.92
55456;BME280;63021;52.836;6.376;2023-04-30T11:53:08;102458.66;;;16.95;49.49
55456;BME280;63021;52.836;6.376;2023-04-30T11:55:34;102429.66;;;16.89;49.13
55456;BME280;63021;52.836;6.376;2023-04-30T11:57:59;102430.59;;;16.98;48.51
55456;BME280;63021;52.836;6.376;2023-04-30T12:00:29;102429.47;;;17.01;49.12
55456;BME280;63021;52.836;6.376;2023-04-30T12:02:56;102408.34;;;17.06;49.70
55456;BME280;63021;52.836;6.376;2023-04-30T12:05:26;102426.91;;;17.27;49.26
55456;BME280;63021;52.836;6.376;2023-04-30T12:07:56;102412.81;;;17.33;48.04
55456;BME280;63021;52.836;6.376;2023-04-30T12:10:23;102439.69;;;17.43;48.47
55456;BME280;63021;52.836;6.376;2023-04-30T12:13:03;102396.97;;;17.30;48.57
55456;BME280;63021;52.836;6.376;2023-04-30T12:15:28;102421.00;;;17.41;49.26
55456;BME280;63021;52.836;6.376;2023-04-30T12:17:58;102411.50;;;17.55;48.95
55456;BME280;63021;52.836;6.376;2023-04-30T12:20:29;102416.66;;;17.66;49.94
55456;BME280;63021;52.836;6.376;2023-04-30T12:22:58;102425.13;;;17.72;49.52
55456;BME280;63021;52.836;6.376;2023-04-30T12:25:38;102420.66;;;17.80;48.74
55456;BME280;63021;52.836;6.376;2023-04-30T12:28:04;102415.41;;;17.79;48.93
55456;BME280;63021;52.836;6.376;2023-04-30T12:30:30;102406.69;;;17.85;49.45
55456;BME280;63021;52.836;6.376;2023-04-30T12:32:59;102381.63;;;17.84;49.37
55456;BME280;63021;52.836;6.376;2023-04-30T12:35:27;102381.41;;;17.96;48.09
55456;BME280;63021;52.836;6.376;2023-04-30T12:38:04;102398.72;;;18.20;47.87
55456;BME280;63021;52.836;6.376;2023-04-30T12:40:34;102383.06;;;18.23;46.77
55456;BME280;63021;52.836;6.376;2023-04-30T12:43:01;102385.63;;;18.33;46.85
55456;BME280;63021;52.836;6.376;2023-04-30T12:45:53;102379.94;;;18.36;45.56
55456;BME280;63021;52.836;6.376;2023-04-30T12:48:23;102383.78;;;18.33;45.82
55456;BME280;63021;52.836;6.376;2023-04-30T12:50:53;102393.75;;;18.41;45.99
55456;BME280;63021;52.836;6.376;2023-04-30T12:53:20;102393.47;;;18.52;46.22
55456;BME280;63021;52.836;6.376;2023-04-30T12:56:11;102393.75;;;18.76;46.59
55456;BME280;63021;52.836;6.376;2023-04-30T12:58:40;102392.81;;;18.93;45.91
55456;BME280;63021;52.836;6.376;2023-04-30T13:01:17;102359.94;;;18.90;46.01
55456;BME280;63021;52.836;6.376;2023-04-30T13:03:47;102382.25;;;19.25;46.19
55456;BME280;63021;52.836;6.376;2023-04-30T13:06:20;102394.25;;;19.38;45.93
55456;BME280;63021;52.836;6.376;2023-04-30T13:08:53;102351.34;;;19.44;46.41
55456;BME280;63021;52.836;6.376;2023-04-30T13:11:28;102351.72;;;19.65;45.04
55456;BME280;63021;52.836;6.376;2023-04-30T13:13:54;102351.72;;;19.65;89.00
55456;BME280;63021;52.836;6.376;2023-04-30T13:16:20;102356.41;;;20.04;44.71
55456;BME280;63021;52.836;6.376;2023-04-30T13:18:56;102372.53;;;20.29;43.04
55456;BME280;63021;52.836;6.376;2023-04-30T13:21:22;102368.13;;;20.36;43.53
55456;BME280;63021;52.836;6.376;2023-04-30T13:23:49;102343.59;;;20.38;43.14
55456;BME280;63021;52.836;6.376;2023-04-30T13:26:23;102334.09;;;20.50;43.47
55456;BME280;63021;52.836;6.376;2023-04-30T13:29:06;102348.47;;;20.82;43.22